createdAt,value
2022-12-18T00:04:30.906Z,28.30
2022-12-18T00:09:39.703Z,22.58
2022-12-18T00:14:41.943Z,21.83
2022-12-18T00:19:43.396Z,21.88
2022-12-18T00:24:44.878Z,24.48
2022-12-18T00:29:46.336Z,25.65
2022-12-18T00:34:47.758Z,26.90
2022-12-18T00:39:49.394Z,25.30
2022-12-18T00:44:50.995Z,26.75
2022-12-18T00:49:52.457Z,24.08
2022-12-18T00:54:53.931Z,24.83
2022-12-18T00:59:55.369Z,28.00
2022-12-18T01:04:56.769Z,24.90
2022-12-18T01:09:58.194Z,23.48
2022-12-18T01:14:59.723Z,24.08
2022-12-18T01:20:01.378Z,23.52
2022-12-18T01:25:04.091Z,24.27
2022-12-18T01:30:06.984Z,22.65
2022-12-18T01:35:08.793Z,21.65
2022-12-18T01:40:10.657Z,20.48
2022-12-18T01:45:12.056Z,18.52
2022-12-18T01:50:37.257Z,24.20
2022-12-18T01:55:46.194Z,21.83
2022-12-18T02:00:47.660Z,24.75
2022-12-18T02:06:10.732Z,21.92
2022-12-18T02:11:29.093Z,17.75
2022-12-18T02:16:45.057Z,19.40
2022-12-18T02:21:59.034Z,20.63
2022-12-18T02:27:06.963Z,20.10
2022-12-18T02:32:15.135Z,22.05
2022-12-18T02:37:19.463Z,19.35
2022-12-18T02:42:21.063Z,22.45
2022-12-18T02:47:25.771Z,24.48
2022-12-18T02:52:35.847Z,21.77
2022-12-18T02:57:42.904Z,20.05
2022-12-18T03:03:00.026Z,24.15
2022-12-18T03:08:09.530Z,22.77
2022-12-18T03:13:18.672Z,23.17
2022-12-18T03:18:28.566Z,24.57
2022-12-18T03:28:39.658Z,22.05
2022-12-18T03:34:00.382Z,24.67
2022-12-18T03:39:01.838Z,20.65
2022-12-18T03:44:13.307Z,23.85
2022-12-18T03:49:26.280Z,22.70
2022-12-18T03:54:29.375Z,21.85
2022-12-18T03:59:32.542Z,22.05
2022-12-18T04:04:36.601Z,23.38
2022-12-18T04:09:40.107Z,19.48
2022-12-18T04:14:42.948Z,18.05
2022-12-18T04:19:44.377Z,19.30
2022-12-18T04:24:45.764Z,19.75
2022-12-18T04:29:47.222Z,21.13
2022-12-18T04:34:48.733Z,21.17
2022-12-18T04:39:50.228Z,21.00
2022-12-18T04:44:51.627Z,19.85
2022-12-18T04:49:53.168Z,22.27
2022-12-18T04:54:54.611Z,24.13
2022-12-18T04:59:56.047Z,18.90
2022-12-18T05:04:57.565Z,15.85
2022-12-18T05:09:59.017Z,19.20
2022-12-18T05:15:00.464Z,20.45
2022-12-18T05:20:01.932Z,19.75
2022-12-18T05:25:03.461Z,21.50
2022-12-18T05:30:05.428Z,20.05
2022-12-18T05:35:09.737Z,22.13
2022-12-18T05:40:12.609Z,21.67
2022-12-18T05:45:14.016Z,22.98
2022-12-18T05:50:15.500Z,17.55
2022-12-18T05:55:16.969Z,19.38
2022-12-18T06:00:18.670Z,20.20
2022-12-18T06:05:20.117Z,19.73
2022-12-18T06:10:21.723Z,23.27
2022-12-18T06:15:23.268Z,23.50
2022-12-18T06:20:26.903Z,22.77
2022-12-18T06:25:32.176Z,23.70
2022-12-18T06:30:33.839Z,20.45
2022-12-18T06:35:35.316Z,22.25
2022-12-18T06:40:39.444Z,24.50
2022-12-18T06:45:41.088Z,23.73
2022-12-18T06:50:45.629Z,26.27
2022-12-18T06:55:47.147Z,23.15
2022-12-18T07:00:48.642Z,22.45
2022-12-18T07:05:50.169Z,25.15
2022-12-18T07:10:55.955Z,25.17
2022-12-18T07:16:06.835Z,22.45
2022-12-18T07:21:14.306Z,26.15
2022-12-18T07:26:18.223Z,23.08
2022-12-18T07:31:22.063Z,23.50
2022-12-18T07:36:23.752Z,21.63
2022-12-18T07:41:25.171Z,20.23
2022-12-18T07:46:26.589Z,24.52
2022-12-18T07:51:27.984Z,23.38
2022-12-18T07:56:30.864Z,20.58
2022-12-18T08:01:34.550Z,20.20
2022-12-18T08:06:36.337Z,21.25
2022-12-18T08:11:37.755Z,20.20
2022-12-18T08:16:39.276Z,18.80
2022-12-18T08:21:40.815Z,19.80
2022-12-18T08:26:43.653Z,20.23
2022-12-18T08:31:53.434Z,22.42
2022-12-18T08:36:54.976Z,20.35
2022-12-18T08:42:15.052Z,19.65
2022-12-18T08:47:16.485Z,19.48
2022-12-18T08:52:18.010Z,20.13
2022-12-18T08:57:19.456Z,20.27
2022-12-18T09:02:21.142Z,21.63
2022-12-18T09:07:22.711Z,22.35
2022-12-18T09:12:24.121Z,20.42
2022-12-18T09:17:25.614Z,24.27
2022-12-18T09:22:27.012Z,22.55
2022-12-18T09:27:28.446Z,20.73
2022-12-18T09:32:29.891Z,27.13
2022-12-18T09:37:31.326Z,21.27
2022-12-18T09:42:33.100Z,20.67
2022-12-18T09:47:39.957Z,22.73
2022-12-18T09:52:46.344Z,21.38
2022-12-18T09:57:54.335Z,21.00
2022-12-18T10:03:09.839Z,23.63
2022-12-18T10:08:22.339Z,20.45
2022-12-18T10:13:39.438Z,20.95
2022-12-18T10:18:56.111Z,20.63
2022-12-18T10:24:14.181Z,28.27
2022-12-18T10:29:17.208Z,21.75
2022-12-18T10:34:18.804Z,23.17
2022-12-18T10:39:23.361Z,26.50
2022-12-18T10:44:28.773Z,23.05
2022-12-18T10:49:33.733Z,23.50
2022-12-18T10:54:36.387Z,25.15
2022-12-18T10:59:55.618Z,21.88
2022-12-18T11:04:57.010Z,23.23
2022-12-18T11:10:04.455Z,23.02
2022-12-18T11:15:07.117Z,24.17
2022-12-18T11:20:21.497Z,21.10
2022-12-18T11:25:33.195Z,20.63
2022-12-18T11:30:37.891Z,24.95
2022-12-18T11:36:04.747Z,19.95
2022-12-18T11:41:49.791Z,23.45
2022-12-18T11:47:03.126Z,22.58
2022-12-18T11:52:17.588Z,26.63
2022-12-18T11:57:22.228Z,24.92
2022-12-18T12:02:40.691Z,27.90
2022-12-18T12:08:04.410Z,30.50
2022-12-18T12:13:50.211Z,23.50
2022-12-18T12:19:15.121Z,24.52
2022-12-18T12:24:58.512Z,25.02
2022-12-18T12:30:24.321Z,21.98
2022-12-18T12:35:45.317Z,20.95
2022-12-18T12:41:00.514Z,23.38
2022-12-18T12:46:10.931Z,26.02
2022-12-18T12:51:24.789Z,24.75
2022-12-18T12:56:39.216Z,23.05
2022-12-18T13:02:20.468Z,26.33
2022-12-18T13:07:29.962Z,24.55
2022-12-18T13:12:51.416Z,29.48
2022-12-18T13:23:25.216Z,27.20
2022-12-18T13:28:33.809Z,23.92
2022-12-18T13:33:35.720Z,25.30
2022-12-18T13:38:42.188Z,26.40
2022-12-18T13:43:46.799Z,23.63
2022-12-18T13:49:02.724Z,24.98
2022-12-18T13:54:26.601Z,25.48
2022-12-18T13:59:38.719Z,23.13
2022-12-18T14:04:42.678Z,22.92
2022-12-18T14:09:47.646Z,24.90
2022-12-18T14:14:55.105Z,22.27
2022-12-18T14:19:57.225Z,23.83
2022-12-18T14:25:14.106Z,24.52
2022-12-18T14:30:24.984Z,25.65
2022-12-18T14:35:26.751Z,22.10
2022-12-18T14:40:29.231Z,25.48
2022-12-18T14:45:42.066Z,24.92
2022-12-18T14:50:44.817Z,24.73
2022-12-18T14:55:49.180Z,21.17
2022-12-18T15:00:51.048Z,25.17
2022-12-18T15:05:52.766Z,23.27
2022-12-18T15:10:54.339Z,25.65
2022-12-18T15:15:59.289Z,28.88
2022-12-18T15:21:09.920Z,25.15
2022-12-18T15:26:13.362Z,25.98
2022-12-18T15:31:15.894Z,25.60
2022-12-18T15:36:26.151Z,25.15
2022-12-18T15:41:28.422Z,58.40
2022-12-18T15:46:30.077Z,38.70
2022-12-18T15:51:37.606Z,39.47
2022-12-18T15:56:57.831Z,42.13
2022-12-18T16:02:00.255Z,41.17
2022-12-18T16:07:23.024Z,33.50
2022-12-18T16:12:25.291Z,35.47
2022-12-18T16:17:26.758Z,32.83
2022-12-18T16:22:30.665Z,31.25
2022-12-18T16:27:32.057Z,28.02
2022-12-18T16:32:33.586Z,33.90
2022-12-18T16:37:35.034Z,30.55
2022-12-18T16:42:39.059Z,33.20
2022-12-18T16:47:40.965Z,31.02
2022-12-18T16:52:42.518Z,32.15
2022-12-18T16:57:43.930Z,30.35
2022-12-18T17:02:47.561Z,30.75
2022-12-18T17:07:49.221Z,29.42
2022-12-18T17:12:51.300Z,27.05
2022-12-18T17:17:52.707Z,27.08
2022-12-18T17:22:54.239Z,30.08
2022-12-18T17:27:55.705Z,25.80
2022-12-18T17:32:57.199Z,34.15
2022-12-18T17:37:58.661Z,26.90
2022-12-18T17:43:00.158Z,24.55
2022-12-18T17:48:01.612Z,26.60
2022-12-18T17:53:03.813Z,24.45
2022-12-18T17:58:05.320Z,22.08
2022-12-18T18:03:06.988Z,29.30
2022-12-18T18:08:08.621Z,22.90
2022-12-18T18:13:47.219Z,34.15
2022-12-18T18:18:48.980Z,25.30
2022-12-18T18:23:50.474Z,20.35
2022-12-18T18:28:54.304Z,23.95
2022-12-18T18:33:56.344Z,23.27
2022-12-18T18:39:01.211Z,27.95
2022-12-18T18:44:02.890Z,30.50
2022-12-18T18:49:05.620Z,34.15
2022-12-18T18:54:07.318Z,32.13
2022-12-18T18:59:08.842Z,25.00
2022-12-18T19:04:10.708Z,23.80
2022-12-18T19:09:12.530Z,21.92
2022-12-18T19:14:15.645Z,21.75
2022-12-18T19:19:21.032Z,23.63
2022-12-18T19:24:22.864Z,22.10
2022-12-18T19:29:24.374Z,22.00
2022-12-18T19:34:25.913Z,22.25
2022-12-18T19:39:27.514Z,23.83
2022-12-18T19:44:29.061Z,23.42
2022-12-18T19:49:32.719Z,22.30
2022-12-18T19:54:34.266Z,29.25
2022-12-18T19:59:36.930Z,29.70
2022-12-18T20:04:40.962Z,24.50
2022-12-18T20:09:42.393Z,23.67
2022-12-18T20:14:43.870Z,27.55
2022-12-18T20:19:45.362Z,24.90
2022-12-18T20:24:49.580Z,24.95
2022-12-18T20:29:51.780Z,22.35
2022-12-18T20:34:53.215Z,23.35
2022-12-18T20:39:55.089Z,27.95
2022-12-18T20:44:56.968Z,28.25
2022-12-18T20:49:58.572Z,35.35
2022-12-18T20:55:06.508Z,24.27
2022-12-18T21:00:08.652Z,28.85
2022-12-18T21:05:11.505Z,29.10
2022-12-18T21:10:13.055Z,29.08
2022-12-18T21:15:14.625Z,28.05
2022-12-18T21:20:17.896Z,31.08
2022-12-18T21:25:20.403Z,31.80
2022-12-18T21:30:21.982Z,30.83
2022-12-18T21:35:23.395Z,31.92
2022-12-18T21:40:26.887Z,26.98
2022-12-18T21:45:28.597Z,31.25
2022-12-18T21:50:30.072Z,25.98
2022-12-18T21:55:31.584Z,26.27
2022-12-18T22:00:33.028Z,27.15
2022-12-18T22:05:34.481Z,26.15
2022-12-18T22:10:36.733Z,27.55
2022-12-18T22:15:38.291Z,26.55
2022-12-18T22:20:39.812Z,30.17
2022-12-18T22:25:41.389Z,35.53
2022-12-18T22:30:42.875Z,30.60
2022-12-18T22:35:44.738Z,40.10
2022-12-18T22:40:46.462Z,34.42
2022-12-18T22:45:49.009Z,28.02
2022-12-18T22:50:50.954Z,27.35
2022-12-18T22:56:01.430Z,26.05
2022-12-18T23:01:03.483Z,29.20
2022-12-18T23:06:09.303Z,32.40
2022-12-18T23:11:11.878Z,33.03
2022-12-18T23:16:16.053Z,36.78
2022-12-18T23:21:19.702Z,33.63
2022-12-18T23:26:23.772Z,32.38
2022-12-18T23:31:30.292Z,30.27
2022-12-18T23:36:38.397Z,31.23
2022-12-18T23:41:47.528Z,30.70
2022-12-18T23:46:49.082Z,25.60
2022-12-18T23:51:50.854Z,24.30
2022-12-18T23:56:52.313Z,26.45
